Humidity-temperature Sensor

Selected Measurement Type: Relative Humidity

 
Relative Humidity [%]     6 entries per hour
Showing data from 7/1/2022 (01:00:00 Z) to 6/30/2022 (00:01:00 Z)
Previous Next [ Day | 3-Days | 7-Days ]
First Last
Prev [ Day | 3-Days | 7-Days ] Next
First Last

Start Time:     :
End Time:     :     
Time (in GMT) :00 :50 :40 :30 :20 :10
Previous Next [ Day | 3-Days | 7-Days ]
First Last
Prev [ Day | 3-Days | 7-Days ] Next
First Last


123 => good data
MM => data is determined as missing
-- => data not received/configured
Back to Top Back to Top
7/1/2022 01:00 to 0:10 96.35 96.06 95.55 94.81 93.27 92.73
7/1/2022 00:00 to 23:10 92.90 92.94 92.28 91.31 90.51 90.14
6/30/2022 23:00 to 22:10 89.81 89.94 89.69 89.73 89.75 89.57
6/30/2022 22:00 to 21:10 89.67 90.02 90.12 90.41 90.33 90.41
6/30/2022 21:00 to 20:10 90.76 90.35 89.61 89.65 89.90 90.20
6/30/2022 20:00 to 19:10 90.22 90.04 89.71 89.83 90.06 90.22
6/30/2022 19:00 to 18:10 90.47 90.76 91.11 91.48 91.48 91.48
6/30/2022 18:00 to 17:10 91.25 89.75 89.90 90.12 90.45 90.53
6/30/2022 17:00 to 16:10 90.72 90.49 90.22 90.24 90.74 91.11
6/30/2022 16:00 to 15:10 91.37 90.96 91.11 91.13 91.40 91.19
6/30/2022 15:00 to 14:10 90.84 90.78 90.45 90.74 91.00 91.21
6/30/2022 14:00 to 13:10 91.66 91.44 91.00 90.86 90.84 90.84
6/30/2022 13:00 to 12:10 91.11 91.44 91.89 92.18 93.14 93.57
6/30/2022 12:00 to 11:10 94.27 94.68 94.99 94.95 94.21 93.20
6/30/2022 11:00 to 10:10 93.43 94.25 94.56 94.87 94.05 93.47
6/30/2022 10:00 to 9:10 93.33 93.37 93.47 93.94 94.15 94.19
6/30/2022 09:00 to 8:10 94.56 94.77 94.97 95.09 95.55 95.75
6/30/2022 08:00 to 7:10 96.08 96.53 96.72 96.51 96.24 95.85
6/30/2022 07:00 to 6:10 95.46 95.77 95.67 95.69 95.71 95.79
6/30/2022 06:00 to 5:10 95.81 96.35 96.47 96.94 97.72 98.53
6/30/2022 05:00 to 4:10 98.90 98.88 98.83 98.81 99.04 98.92
6/30/2022 04:00 to 3:10 98.96 98.90 99.12 99.02 99.02 98.79
6/30/2022 03:00 to 2:10 98.61 98.30 98.28 98.30 98.32 98.24
6/30/2022 02:00 to 1:10 98.67 98.57 98.83 98.73 98.75 98.98
6/30/2022 01:00 to 0:10 98.94 99.00 98.92 98.75 98.77 98.85